Time;durP1;ratioP1;P1;durP2;ratioP2;P2;SDS_P1;SDS_P2;PMS_P1;PMS_P2;Temp;Humidity;BMP_temperature;BMP_pressure;BME280_temperature;BME280_humidity;BME280_pressure;Samples;Min_cycle;Max_cycle;Signal;HPM_P1;HPM_P2
2021/12/23 00:01:30;;;;;;;17.35;9.93;;;;;;;-11.89;77.21;101411.63;5097867;28;20119;-70
2021/12/23 00:03:57;;;;;;;;;;;;;;;-11.72;76.86;101437.22;5099908;28;20477;-70
2021/12/23 00:06:22;;;;;;;12.00;8.80;;;;;;;-11.79;76.89;101428.72;5098438;28;19915;-69
2021/12/23 00:08:48;;;;;;;15.03;8.30;;;;;;;-11.89;76.66;101415.03;5099079;28;20054;-71
2021/12/23 00:11:13;;;;;;;14.60;8.73;;;;;;;-11.94;76.91;101403.09;5095921;28;20071;-73
2021/12/23 00:13:48;;;;;;;13.27;9.10;;;;;;;-11.89;76.55;101403.91;5096549;28;20032;-71
2021/12/23 00:16:18;;;;;;;15.15;9.10;;;;;;;-11.98;77.02;101406.53;5079652;28;20112;-71
2021/12/23 00:18:55;;;;;;;13.52;9.20;;;;;;;-11.91;76.59;101413.34;5078209;28;20629;-71
2021/12/23 00:24:25;;;;;;;15.20;9.93;;;;;;;-11.86;76.59;101391.06;5054671;28;20036;-73
2021/12/23 00:26:50;;;;;;;14.20;9.83;;;;;;;-11.75;76.67;101389.28;5041529;28;20037;-70
2021/12/23 00:29:16;;;;;;;13.37;8.70;;;;;;;-11.63;76.20;101378.06;5076125;28;20438;-70
2021/12/23 00:31:41;;;;;;;18.13;9.03;;;;;;;-11.39;75.59;101395.06;5096818;28;20048;-70
2021/12/23 00:34:09;;;;;;;14.70;9.93;;;;;;;-11.36;76.29;101374.50;5096219;28;20119;-70
2021/12/23 00:36:35;;;;;;;17.40;8.70;;;;;;;-11.33;75.69;101346.19;5096387;28;20035;-71
2021/12/23 00:39:02;;;;;;;15.32;9.25;;;;;;;-11.18;75.72;101361.50;5095843;28;20430;-71
2021/12/23 00:41:30;;;;;;;15.20;9.07;;;;;;;-11.00;75.50;101365.66;5094315;28;20067;-71
2021/12/23 00:43:57;;;;;;;13.93;8.98;;;;;;;-11.07;75.71;101343.41;5096147;28;20036;-73
2021/12/23 00:46:23;;;;;;;14.75;8.80;;;;;;;-11.42;75.25;101275.13;5093890;28;20039;-71
2021/12/23 00:48:48;;;;;;;13.27;8.57;;;;;;;-10.83;75.95;101353.50;5095260;28;20085;-71
2021/12/23 00:51:15;;;;;;;15.53;10.47;;;;;;;-10.88;75.99;101329.53;5095488;28;20123;-71
2021/12/23 00:53:41;;;;;;;14.32;8.70;;;;;;;-10.68;75.18;101331.94;5095556;28;20028;-72
2021/12/23 00:56:10;;;;;;;9.45;7.45;;;;;;;-10.58;75.77;101338.69;5095669;28;20039;-70
2021/12/23 00:58:36;;;;;;;13.45;9.10;;;;;;;-10.47;75.53;101325.69;5095643;28;20040;-72
2021/12/23 01:01:04;;;;;;;10.37;8.47;;;;;;;-10.53;75.20;101300.03;5093661;28;20058;-70
2021/12/23 01:03:29;;;;;;;15.82;8.65;;;;;;;-10.32;75.03;101308.38;5095467;28;20027;-70
2021/12/23 01:05:56;;;;;;;15.17;8.80;;;;;;;-10.27;75.36;101308.31;5095463;28;20055;-71
2021/12/23 01:08:22;;;;;;;9.43;7.13;;;;;;;-10.29;75.45;101286.88;5076968;28;20386;-72
2021/12/23 01:10:51;;;;;;;13.63;7.47;;;;;;;-10.39;75.47;101252.66;5093262;28;20040;-71
2021/12/23 01:13:19;;;;;;;10.75;7.72;;;;;;;-10.19;75.43;101285.84;5093332;28;20637;-71
2021/12/23 01:16:04;;;;;;;10.50;8.57;;;;;;;-11.09;75.10;101150.53;5094800;28;20070;-72
2021/12/23 01:18:44;;;;;;;9.05;6.97;;;;;;;-10.42;75.83;101267.28;5095125;28;20046;-71
2021/12/23 01:21:16;;;;;;;9.90;6.10;;;;;;;-10.40;75.88;101271.56;5094962;28;20127;-70
2021/12/23 01:23:53;;;;;;;9.80;7.13;;;;;;;-10.44;76.30;101263.88;5095509;28;20093;-72
2021/12/23 01:26:22;;;;;;;10.82;7.30;;;;;;;-10.49;76.52;101252.78;5094329;28;20390;-70
2021/12/23 01:28:54;;;;;;;14.17;7.20;;;;;;;-10.57;76.62;101247.72;5093578;28;20046;-69
2021/12/23 01:31:34;;;;;;;15.68;8.60;;;;;;;-10.56;77.53;101259.72;5095319;28;20270;-70
2021/12/23 01:34:04;;;;;;;7.55;5.95;;;;;;;-10.72;77.85;101222.16;5099700;28;20097;-70
2021/12/23 01:36:30;;;;;;;7.57;5.28;;;;;;;-10.53;78.03;101238.25;5082067;28;20032;-70
2021/12/23 01:38:57;;;;;;;7.78;5.93;;;;;;;-10.33;78.22;101244.84;5094362;28;20403;-70
2021/12/23 01:41:24;;;;;;;7.18;4.68;;;;;;;-10.19;78.37;101234.34;5076227;28;20040;-70
2021/12/23 01:43:52;;;;;;;4.68;3.92;;;;;;;-10.02;78.16;101224.66;5092842;28;20503;-72
2021/12/23 01:46:18;;;;;;;8.73;3.80;;;;;;;-9.86;78.21;101227.84;5095141;28;20028;-70
2021/12/23 01:48:45;;;;;;;6.32;3.92;;;;;;;-9.75;78.26;101214.81;5094021;28;20048;-70
2021/12/23 01:51:11;;;;;;;4.35;3.95;;;;;;;-9.62;78.42;101225.78;5094362;28;20089;-71
2021/12/23 01:53:37;;;;;;;5.28;3.58;;;;;;;-9.49;78.00;101212.69;5093219;28;20036;-71
2021/12/23 01:56:03;;;;;;;14.30;4.70;;;;;;;-9.36;77.58;101205.56;5093060;28;20031;-73
2021/12/23 01:58:29;;;;;;;4.55;4.15;;;;;;;-9.27;77.40;101197.66;5094052;28;20046;-71
2021/12/23 02:00:55;;;;;;;7.28;4.35;;;;;;;-9.30;77.45;101164.19;5092846;28;20024;-71
2021/12/23 02:03:21;;;;;;;3.63;3.30;;;;;;;-9.34;77.22;101136.75;5093920;28;20043;-70
2021/12/23 02:05:48;;;;;;;3.90;3.43;;;;;;;-9.13;76.99;101164.75;5093860;28;20036;-71
2021/12/23 02:08:15;;;;;;;3.67;3.22;;;;;;;-9.09;77.14;101166.38;5094481;28;20274;-69
2021/12/23 02:10:42;;;;;;;4.75;4.18;;;;;;;-9.08;76.71;101152.59;5092626;28;20410;-69
2021/12/23 02:13:09;;;;;;;4.60;4.03;;;;;;;-9.12;76.59;101127.75;5094071;28;20479;-69
2021/12/23 02:15:44;;;;;;;4.97;4.47;;;;;;;-9.07;77.07;101115.59;5093971;28;20525;-69
2021/12/23 02:18:14;;;;;;;4.65;3.50;;;;;;;-8.87;76.61;101135.00;5093917;28;20124;-70
2021/12/23 02:20:39;;;;;;;3.55;3.20;;;;;;;-8.80;76.37;101121.09;5093108;28;20078;-71
2021/12/23 02:23:08;;;;;;;4.73;4.13;;;;;;;-8.80;76.51;101115.94;5092088;28;20119;-70
2021/12/23 02:25:34;;;;;;;4.33;3.93;;;;;;;-8.86;76.46;101105.72;5092425;28;20449;-71
2021/12/23 02:28:07;;;;;;;4.13;3.73;;;;;;;-9.64;76.22;100974.91;5092441;28;20036;-71
2021/12/23 02:30:36;;;;;;;4.20;3.78;;;;;;;-9.08;77.12;101059.72;5092645;28;20070;-71
2021/12/23 02:33:02;;;;;;;4.05;3.25;;;;;;;-9.14;77.81;101074.47;5093428;28;20036;-71
2021/12/23 02:35:28;;;;;;;4.32;3.88;;;;;;;-9.18;77.89;101068.53;5094491;28;20028;-70
2021/12/23 02:37:53;;;;;;;5.77;5.13;;;;;;;-9.23;77.86;101060.03;5093587;28;20040;-71
2021/12/23 02:40:40;;;;;;;6.03;4.83;;;;;;;-9.11;78.11;101059.78;5093545;28;20032;-70
2021/12/23 02:43:13;;;;;;;5.00;4.50;;;;;;;-9.09;77.95;101052.84;5093475;28;20181;-71
2021/12/23 02:45:44;;;;;;;3.80;3.40;;;;;;;-9.12;78.53;101042.59;5093745;28;20040;-70
2021/12/23 02:48:15;;;;;;;4.75;3.88;;;;;;;-9.02;78.55;101052.72;5093247;28;20104;-70
2021/12/23 02:50:44;;;;;;;4.88;3.85;;;;;;;-8.92;78.82;101051.66;5092009;28;20047;-69
2021/12/23 02:53:10;;;;;;;7.57;4.20;;;;;;;-8.84;78.72;101052.34;5093606;28;20024;-70
2021/12/23 02:55:35;;;;;;;5.70;4.60;;;;;;;-8.76;78.50;101040.97;5092253;28;20274;-70
2021/12/23 02:58:01;;;;;;;6.87;4.17;;;;;;;-8.90;78.25;101000.88;5093106;28;20422;-70
2021/12/23 03:00:27;;;;;;;5.97;4.50;;;;;;;-8.78;78.75;101004.00;5094415;28;20046;-70
2021/12/23 03:02:52;;;;;;;5.30;4.70;;;;;;;-8.60;78.91;101010.50;5093347;28;20039;-72
2021/12/23 03:05:18;;;;;;;7.10;4.73;;;;;;;-8.54;78.68;101007.75;5094311;28;20117;-71
2021/12/23 03:07:43;;;;;;;9.37;5.40;;;;;;;-8.39;78.88;101023.75;5094074;28;20036;-73
2021/12/23 03:10:09;;;;;;;7.33;5.00;;;;;;;-8.32;78.89;101015.81;5091902;28;20043;-71
2021/12/23 03:12:36;;;;;;;4.95;4.13;;;;;;;-8.27;78.50;100995.03;5093033;28;20061;-71
2021/12/23 03:15:02;;;;;;;7.72;5.28;;;;;;;-8.17;78.66;101014.56;5092968;28;20036;-72
2021/12/23 03:17:33;;;;;;;6.10;5.28;;;;;;;-8.22;78.26;100993.19;5091306;28;20060;-70
2021/12/23 03:19:59;;;;;;;7.40;6.28;;;;;;;-8.28;78.42;100972.66;5092823;28;20032;-72
2021/12/23 03:22:25;;;;;;;8.13;4.83;;;;;;;-8.14;79.04;100978.31;5094494;28;20044;-71
2021/12/23 03:24:50;;;;;;;6.03;5.07;;;;;;;-8.22;78.97;100959.59;5093377;28;20031;-73
2021/12/23 03:27:16;;;;;;;7.33;5.13;;;;;;;-8.12;78.80;100966.22;5092375;28;20036;-71
2021/12/23 03:29:42;;;;;;;8.73;5.37;;;;;;;-8.05;79.24;100967.75;5092499;28;20043;-72
2021/12/23 03:32:08;;;;;;;7.83;5.97;;;;;;;-8.06;79.53;100950.56;5075258;28;20039;-73
2021/12/23 03:34:33;;;;;;;9.03;4.60;;;;;;;-8.13;79.79;100916.25;5097666;28;20128;-73
2021/12/23 03:36:59;;;;;;;5.87;5.23;;;;;;;-7.99;79.89;100920.22;5096490;28;20494;-72
2021/12/23 03:39:24;;;;;;;6.67;5.10;;;;;;;-7.98;79.76;100901.25;5097027;28;20135;-71
2021/12/23 03:41:50;;;;;;;9.13;5.07;;;;;;;-7.99;80.39;100890.06;5097640;28;20074;-72
2021/12/23 03:44:16;;;;;;;6.60;5.57;;;;;;;-7.92;79.86;100881.22;5096194;28;20040;-73
2021/12/23 03:46:42;;;;;;;7.40;5.93;;;;;;;-7.92;80.38;100876.06;5100347;28;20044;-71
2021/12/23 03:49:08;;;;;;;6.03;4.60;;;;;;;-7.86;80.17;100865.53;5100143;28;20035;-71
2021/12/23 03:51:35;;;;;;;7.47;5.15;;;;;;;-7.81;79.65;100857.66;5072892;22;20395;-71
2021/12/23 03:54:06;;;;;;;9.63;5.18;;;;;;;-7.79;79.43;100844.72;5027274;28;20064;-71
2021/12/23 03:56:36;;;;;;;5.40;4.80;;;;;;;-7.74;78.87;100863.50;5024550;28;20504;-71
2021/12/23 03:59:03;;;;;;;5.10;4.47;;;;;;;-7.73;78.91;100849.69;5023110;28;20037;-72
2021/12/23 04:01:36;;;;;;;7.90;6.75;;;;;;;-7.68;78.11;100845.22;5043216;28;20048;-71
2021/12/23 04:04:03;;;;;;;9.00;4.75;;;;;;;-7.79;77.57;100819.69;5066428;22;20069;-73
2021/12/23 04:06:29;;;;;;;6.88;5.55;;;;;;;-7.77;77.02;100823.09;5039252;28;20428;-72
2021/12/23 04:08:55;;;;;;;5.35;4.60;;;;;;;-7.79;77.12;100813.69;5036788;28;20048;-73
2021/12/23 04:11:22;;;;;;;7.25;5.13;;;;;;;-7.78;77.42;100807.63;5035709;28;20043;-72
2021/12/23 04:13:48;;;;;;;5.87;4.87;;;;;;;-7.85;77.23;100791.41;5036223;28;20380;-70
2021/12/23 04:16:14;;;;;;;6.22;4.78;;;;;;;-7.68;77.67;100806.44;5036409;28;20092;-72
2021/12/23 04:18:45;;;;;;;7.63;5.53;;;;;;;-7.73;76.99;100797.97;5036346;28;20484;-72
2021/12/23 04:21:13;;;;;;;5.72;4.43;;;;;;;-7.64;77.14;100800.28;5037548;28;20056;-72
2021/12/23 04:23:39;;;;;;;5.60;5.00;;;;;;;-7.69;76.96;100782.31;5034730;28;20420;-72
2021/12/23 04:26:07;;;;;;;4.60;4.20;;;;;;;-7.67;76.34;100771.94;5035610;28;20026;-72
2021/12/23 04:28:34;;;;;;;4.97;4.50;;;;;;;-7.79;76.32;100736.13;5035565;28;20049;-72
2021/12/23 04:31:00;;;;;;;5.05;4.45;;;;;;;-7.71;76.09;100734.13;5035308;28;20037;-71
2021/12/23 04:33:26;;;;;;;7.57;4.60;;;;;;;-7.61;75.58;100740.69;5035743;28;20040;-73
2021/12/23 04:35:51;;;;;;;7.67;5.20;;;;;;;-7.59;75.44;100729.41;5034647;28;20036;-70
2021/12/23 04:38:17;;;;;;;6.23;4.93;;;;;;;-7.62;74.88;100707.97;5034604;28;20139;-71
2021/12/23 04:40:42;;;;;;;6.67;4.60;;;;;;;-7.63;75.04;100706.28;5035322;28;20029;-72
2021/12/23 04:43:09;;;;;;;5.77;4.47;;;;;;;-7.53;74.88;100705.09;5036358;28;20034;-71
2021/12/23 04:45:34;;;;;;;5.63;4.80;;;;;;;-7.79;75.57;100653.41;5036187;28;20042;-72
2021/12/23 04:48:00;;;;;;;5.17;3.90;;;;;;;-7.46;76.21;100693.66;5037596;28;20044;-72
2021/12/23 04:50:26;;;;;;;6.63;5.50;;;;;;;-7.55;77.82;100675.84;5037621;28;20033;-72
2021/12/23 04:52:52;;;;;;;5.07;4.23;;;;;;;-7.53;77.63;100655.94;5036008;28;20041;-72
2021/12/23 04:55:17;;;;;;;7.93;5.10;;;;;;;-7.58;76.98;100639.75;5035236;28;20123;-72
2021/12/23 04:57:44;;;;;;;5.43;4.67;;;;;;;-7.40;77.38;100662.41;5036218;28;20062;-72
2021/12/23 05:00:13;;;;;;;6.57;4.50;;;;;;;-7.43;77.22;100657.34;5035431;28;20037;-72
2021/12/23 05:02:43;;;;;;;5.57;4.20;;;;;;;-7.42;77.13;100622.81;5034961;28;20048;-73
2021/12/23 05:05:10;;;;;;;5.60;5.07;;;;;;;-7.50;76.36;100598.97;5035233;28;20054;-73
2021/12/23 05:07:37;;;;;;;7.28;4.75;;;;;;;-7.34;76.87;100622.53;5036264;28;20045;-72
2021/12/23 05:10:05;;;;;;;5.25;4.63;;;;;;;-7.52;76.52;100585.22;5035942;28;20195;-72
2021/12/23 05:12:31;;;;;;;9.05;3.60;;;;;;;-7.31;76.81;100604.31;5034684;28;20493;-71
2021/12/23 05:14:56;;;;;;;6.17;4.40;;;;;;;-7.47;77.01;100570.41;5035131;28;20223;-72
2021/12/23 05:17:22;;;;;;;5.97;4.07;;;;;;;-7.38;77.15;100567.47;5034633;28;20037;-72
2021/12/23 05:19:48;;;;;;;5.90;4.27;;;;;;;-7.28;77.07;100579.19;5035328;28;20045;-72
2021/12/23 05:22:13;;;;;;;6.63;4.60;;;;;;;-7.28;77.33;100579.19;5035176;28;20048;-72
2021/12/23 05:24:39;;;;;;;5.97;4.47;;;;;;;-7.24;78.33;100560.06;5033659;28;20100;-73
2021/12/23 05:27:04;;;;;;;6.60;4.97;;;;;;;-7.28;78.45;100545.53;5033611;28;20037;-72
2021/12/23 05:29:30;;;;;;;5.63;4.93;;;;;;;-7.37;78.25;100532.94;5036567;28;20404;-72
2021/12/23 05:31:55;;;;;;;4.90;3.90;;;;;;;-7.14;78.17;100549.41;5036411;28;20038;-70
2021/12/23 05:34:21;;;;;;;5.40;4.80;;;;;;;-7.11;78.23;100549.28;5036903;28;20409;-73
2021/12/23 05:36:46;;;;;;;4.37;3.67;;;;;;;-7.19;78.17;100536.63;5038974;28;20033;-71
2021/12/23 05:39:12;;;;;;;6.20;4.10;;;;;;;-7.42;78.86;100493.47;5035086;28;20095;-71
2021/12/23 05:41:37;;;;;;;4.13;3.70;;;;;;;-7.19;78.86;100527.13;5034034;28;20034;-74
2021/12/23 05:44:06;;;;;;;9.20;4.03;;;;;;;-7.13;78.48;100540.72;5036058;28;20037;-72
2021/12/23 05:46:32;;;;;;;4.75;3.95;;;;;;;-7.13;79.31;100531.22;5033701;28;20033;-73
2021/12/23 05:48:57;;;;;;;6.63;5.27;;;;;;;-7.18;78.63;100521.03;5034550;28;20043;-72
2021/12/23 05:51:23;;;;;;;6.47;4.00;;;;;;;-7.16;79.21;100514.97;5033475;28;20037;-75
2021/12/23 05:53:48;;;;;;;5.63;4.33;;;;;;;-7.24;78.76;100487.59;5035258;28;20045;-72
2021/12/23 05:56:14;;;;;;;6.57;4.60;;;;;;;-7.20;78.56;100503.88;5032881;28;20152;-74
2021/12/23 05:58:40;;;;;;;6.03;4.50;;;;;;;-7.12;79.69;100511.34;5034618;28;20037;-72
2021/12/23 06:01:05;;;;;;;6.13;4.20;;;;;;;-7.26;80.30;100488.56;5034858;28;20156;-74
2021/12/23 06:03:32;;;;;;;5.13;4.00;;;;;;;-7.17;80.86;100493.41;5035104;28;20057;-73
2021/12/23 06:05:58;;;;;;;8.70;4.43;;;;;;;-7.16;81.10;100489.94;5034174;28;20041;-74
2021/12/23 06:08:24;;;;;;;5.80;4.20;;;;;;;-7.23;80.77;100458.28;5033603;28;20047;-73
2021/12/23 06:10:50;;;;;;;6.43;5.43;;;;;;;-7.23;81.36;100460.88;5035238;28;20056;-73
2021/12/23 06:13:16;;;;;;;6.85;4.18;;;;;;;-7.16;81.21;100468.38;5035084;28;20048;-72
2021/12/23 06:15:41;;;;;;;7.23;3.87;;;;;;;-7.13;82.18;100463.09;5034641;28;20037;-72
2021/12/23 06:18:07;;;;;;;6.90;4.47;;;;;;;-7.14;82.32;100451.91;5033165;28;20059;-72
2021/12/23 06:20:36;;;;;;;5.37;4.87;;;;;;;-7.21;83.31;100440.94;5034550;28;20064;-71
2021/12/23 06:23:02;;;;;;;5.57;4.15;;;;;;;-7.17;83.16;100441.66;5032542;28;20084;-69
2021/12/23 06:25:28;;;;;;;4.82;3.85;;;;;;;-7.36;84.06;100396.69;5032936;28;20041;-69
2021/12/23 06:27:53;;;;;;;5.07;4.20;;;;;;;-7.21;82.58;100416.81;5034252;28;20568;-69
2021/12/23 06:30:19;;;;;;;10.10;4.77;;;;;;;-7.09;82.97;100433.59;5032601;28;20038;-68
2021/12/23 06:32:55;;;;;;;7.53;5.23;;;;;;;-7.07;82.53;100416.25;5033060;28;20128;-68
2021/12/23 06:35:25;;;;;;;5.47;4.35;;;;;;;-7.15;82.27;100398.44;5033254;28;20049;-71
2021/12/23 06:37:51;;;;;;;8.18;4.43;;;;;;;-7.05;81.98;100409.28;5015972;28;20099;-71
2021/12/23 06:40:18;;;;;;;5.13;4.72;;;;;;;-7.06;81.41;100392.91;5032608;28;20041;-72
2021/12/23 06:42:43;;;;;;;7.13;5.07;;;;;;;-7.04;81.49;100393.69;5034103;28;20044;-73
2021/12/23 06:45:09;;;;;;;4.97;3.80;;;;;;;-7.01;80.98;100367.69;5034521;28;20033;-72
2021/12/23 06:47:36;;;;;;;4.83;4.33;;;;;;;-7.00;80.84;100350.41;5033416;28;20124;-70
2021/12/23 06:50:04;;;;;;;3.90;3.60;;;;;;;-6.93;80.18;100362.22;5033643;28;20400;-68
2021/12/23 06:52:35;;;;;;;6.22;4.50;;;;;;;-7.01;80.23;100346.97;5034272;28;20041;-67
2021/12/23 06:55:05;;;;;;;7.13;4.00;;;;;;;-7.58;79.55;100236.31;5033231;28;20044;-68
2021/12/23 06:57:30;;;;;;;5.22;4.72;;;;;;;-6.92;79.18;100330.25;5034197;28;20045;-70
2021/12/23 06:59:56;;;;;;;4.83;4.33;;;;;;;-6.91;79.48;100329.34;5034203;28;20114;-69
2021/12/23 07:02:39;;;;;;;6.23;4.27;;;;;;;-6.83;78.72;100313.47;5042288;28;20013;-66
2021/12/23 07:05:17;;;;;;;4.07;3.65;;;;;;;-6.80;79.05;100314.19;5025492;28;20057;-71
2021/12/23 07:13:51;;;;;;;5.28;3.80;;;;;;;-6.72;78.60;100283.63;5181306;23;20140;-65
2021/12/23 07:16:31;;;;;;;4.45;3.72;;;;;;;-6.75;78.66;100283.75;5017088;28;20050;-74
2021/12/23 07:19:06;;;;;;;5.88;4.68;;;;;;;-6.83;79.20;100254.78;5066404;22;20438;-73
2021/12/23 07:21:33;;;;;;;6.30;4.15;;;;;;;-6.68;79.26;100268.78;5027147;28;20030;-73
2021/12/23 07:24:08;;;;;;;4.18;3.60;;;;;;;-6.66;78.72;100265.22;5159331;22;20122;-70
2021/12/23 07:26:35;;;;;;;5.82;4.10;;;;;;;-6.62;78.53;100269.41;5233795;22;20026;-65
2021/12/23 07:29:03;;;;;;;5.72;4.38;;;;;;;-6.57;78.41;100267.44;5149654;22;20038;-73
2021/12/23 07:31:40;;;;;;;5.38;4.10;;;;;;;-6.50;78.75;100254.22;5021660;28;20042;-68
2021/12/23 07:34:08;;;;;;;4.40;4.00;;;;;;;-6.55;78.43;100238.88;5004164;28;20133;-70
2021/12/23 07:36:35;;;;;;;4.43;3.67;;;;;;;-6.59;78.23;100227.81;5008924;28;20070;-71
2021/12/23 07:39:09;;;;;;;8.25;4.00;;;;;;;-6.41;78.07;100246.03;5030084;22;20097;-73
2021/12/23 07:41:35;;;;;;;5.00;4.18;;;;;;;-6.38;78.72;100244.13;5017876;28;20049;-74
2021/12/23 07:44:21;;;;;;;5.70;3.63;;;;;;;-6.70;78.76;100172.22;5018505;28;20049;-77
2021/12/23 07:46:50;;;;;;;6.10;3.63;;;;;;;-6.34;78.53;100218.97;4999924;28;20041;-71
2021/12/23 07:49:20;;;;;;;4.85;3.78;;;;;;;-6.31;78.88;100226.59;5017106;28;20045;-68
2021/12/23 07:51:46;;;;;;;6.22;4.70;;;;;;;-6.30;78.60;100217.91;5026216;28;20136;-73
2021/12/23 07:54:39;;;;;;;4.28;3.78;;;;;;;-6.40;79.01;100191.56;5019769;28;20563;-70
2021/12/23 07:57:08;;;;;;;5.00;4.15;;;;;;;-6.28;78.45;100197.94;5017944;28;20041;-69
2021/12/23 07:59:54;;;;;;;4.88;4.25;;;;;;;-6.22;78.74;100205.44;5006712;28;20053;-71
2021/12/23 08:02:30;;;;;;;3.67;3.30;;;;;;;-6.18;79.13;100185.41;5076681;22;20013;-75
2021/12/23 08:05:34;;;;;;;10.18;4.57;;;;;;;-6.19;79.76;100183.72;4981134;28;20057;-72
2021/12/23 08:08:07;;;;;;;4.15;3.70;;;;;;;-6.18;79.68;100169.84;4982890;28;20499;-71
2021/12/23 08:10:56;;;;;;;4.13;3.72;;;;;;;-6.14;78.92;100177.41;4980065;28;20133;-72
2021/12/23 08:13:22;;;;;;;6.90;4.55;;;;;;;-6.15;79.46;100164.50;4981885;28;20039;-70
2021/12/23 08:16:03;;;;;;;7.70;4.93;;;;;;;-6.11;79.03;100163.44;5001977;22;20035;-72
2021/12/23 08:18:33;;;;;;;5.15;3.72;;;;;;;-6.09;79.54;100149.50;4997695;28;20046;-74
2021/12/23 08:21:00;;;;;;;4.90;4.40;;;;;;;-6.09;80.13;100139.13;4999487;28;20046;-68
2021/12/23 08:23:36;;;;;;;3.97;3.53;;;;;;;-6.08;79.78;100148.59;5005225;28;20058;-73
2021/12/23 08:26:10;;;;;;;4.10;3.47;;;;;;;-6.06;79.50;100127.81;4989318;28;20048;-67
2021/12/23 08:28:36;;;;;;;6.00;4.18;;;;;;;-6.06;79.99;100131.25;5009725;28;20121;-67
2021/12/23 08:31:07;;;;;;;5.00;4.22;;;;;;;-6.00;80.51;100117.97;5040228;22;20073;-68
2021/12/23 08:34:38;;;;;;;5.03;3.58;;;;;;;-5.95;79.94;100113.41;5026054;28;20050;-71
2021/12/23 08:37:06;;;;;;;5.75;4.13;;;;;;;-5.93;79.00;100106.38;5002591;28;20058;-72
2021/12/23 08:39:35;;;;;;;4.82;3.53;;;;;;;-5.93;79.49;100103.81;5003386;28;20038;-68
2021/12/23 08:42:05;;;;;;;5.68;4.30;;;;;;;-5.85;79.12;100094.75;5014242;28;20026;-71
2021/12/23 08:44:34;;;;;;;5.03;4.22;;;;;;;-6.00;79.78;100076.50;5001290;28;20049;-69
2021/12/23 08:47:00;;;;;;;4.88;3.97;;;;;;;-5.91;79.65;100072.59;4996709;28;20062;-74
2021/12/23 08:49:25;;;;;;;4.53;4.13;;;;;;;-5.85;80.09;100074.88;4996174;28;20038;-71
2021/12/23 08:51:51;;;;;;;6.30;4.63;;;;;;;-5.83;80.11;100069.59;4995946;28;20034;-70
2021/12/23 08:54:17;;;;;;;4.83;3.93;;;;;;;-5.73;80.42;100070.84;4996423;28;20038;-68
2021/12/23 08:56:43;;;;;;;5.63;4.97;;;;;;;-5.79;80.15;100059.00;4996336;28;20080;-68
2021/12/23 08:59:09;;;;;;;7.50;5.10;;;;;;;-5.78;84.03;100065.00;4995983;28;20034;-70
2021/12/23 09:01:35;;;;;;;5.43;4.10;;;;;;;-5.81;85.05;100054.81;4996437;28;20046;-71
2021/12/23 09:04:02;;;;;;;9.02;4.38;;;;;;;-6.48;84.07;99931.19;4996190;28;20046;-71
2021/12/23 09:06:27;;;;;;;14.75;4.68;;;;;;;-5.72;83.70;100038.81;4996610;28;20045;-72
2021/12/23 09:08:54;;;;;;;6.83;4.20;;;;;;;-5.70;84.07;100035.22;4996451;28;20034;-69
2021/12/23 09:11:20;;;;;;;4.95;3.50;;;;;;;-5.75;83.73;100020.81;4995595;28;20043;-72
2021/12/23 09:13:46;;;;;;;6.57;5.00;;;;;;;-5.74;84.61;100014.69;4993573;28;20410;-69
2021/12/23 09:16:14;;;;;;;7.50;4.45;;;;;;;-5.64;84.63;100015.91;5009576;28;20046;-70
2021/12/23 09:18:40;;;;;;;8.93;4.97;;;;;;;-5.59;84.59;100003.53;4994699;28;20512;-73
2021/12/23 09:21:06;;;;;;;5.70;4.57;;;;;;;-5.67;84.22;99984.94;4994947;28;20038;-71
2021/12/23 09:23:31;;;;;;;8.83;4.53;;;;;;;-5.51;84.10;100001.34;4995342;28;20406;-70
2021/12/23 09:25:57;;;;;;;5.47;4.27;;;;;;;-5.51;84.50;100001.34;4995374;28;20413;-67
2021/12/23 09:33:36;;;;;;;4.78;3.85;;;;;;;-5.62;84.86;99944.84;4994527;28;20074;-69
2021/12/23 09:36:03;;;;;;;9.32;4.30;;;;;;;-5.35;85.01;99970.28;4995131;28;20093;-72
2021/12/23 09:38:29;;;;;;;5.03;4.50;;;;;;;-5.42;84.12;99949.00;4995191;28;20030;-71
2021/12/23 09:41:02;;;;;;;5.40;3.83;;;;;;;-5.28;83.46;99960.38;4994264;28;20057;-70
2021/12/23 09:43:30;;;;;;;5.60;4.20;;;;;;;-5.20;84.46;99959.09;4995047;28;20045;-74
2021/12/23 09:45:57;;;;;;;7.05;4.03;;;;;;;-5.26;85.47;99927.41;4993385;28;20172;-72
2021/12/23 09:48:26;;;;;;;8.45;4.60;;;;;;;-5.16;85.65;99939.81;4994762;28;20030;-74
2021/12/23 09:50:51;;;;;;;6.32;4.88;;;;;;;-5.09;86.08;99933.38;4994819;28;20069;-69
2021/12/23 09:53:21;;;;;;;5.20;4.27;;;;;;;-5.06;84.79;99924.56;4994394;28;20587;-71
2021/12/23 09:55:47;;;;;;;8.85;5.47;;;;;;;-5.08;84.68;99908.25;5009278;28;20034;-72
2021/12/23 09:58:13;;;;;;;4.55;3.88;;;;;;;-5.01;84.68;99906.97;4994635;28;20413;-72
2021/12/23 10:00:45;;;;;;;4.80;4.30;;;;;;;-4.97;85.11;99894.66;4993206;28;20030;-69
2021/12/23 10:03:13;;;;;;;6.63;4.43;;;;;;;-4.94;84.52;99890.13;4995658;28;20465;-74
2021/12/23 10:05:39;;;;;;;7.68;4.30;;;;;;;-5.00;84.53;99882.69;4994608;28;20401;-72
2021/12/23 10:08:06;;;;;;;15.82;5.40;;;;;;;-4.95;84.90;99865.06;4994317;28;20568;-73
2021/12/23 10:10:45;;;;;;;9.68;5.00;;;;;;;-4.93;84.91;99868.41;4994624;28;20051;-70
2021/12/23 10:33:31;;;;;;;6.47;4.82;;;;;;;-4.64;85.74;99800.97;4993446;28;20054;-72
2021/12/23 10:39:04;;;;;;;17.52;5.63;;;;;;;-4.48;87.83;99814.75;4994318;28;20130;-74
2021/12/23 10:41:30;;;;;;;12.57;5.47;;;;;;;-4.46;88.41;99820.69;4977307;28;20136;-72
2021/12/23 10:44:02;;;;;;;17.85;5.55;;;;;;;-4.56;88.31;99793.59;4992602;28;20076;-77
2021/12/23 10:46:37;;;;;;;11.63;5.70;;;;;;;-5.07;88.26;99710.84;4993678;28;20065;-77
2021/12/23 10:52:08;;;;;;;8.75;5.00;;;;;;;-4.37;88.67;99794.97;4993528;28;20037;-69
2021/12/23 11:00:34;;;;;;;6.07;5.47;;;;;;;-4.32;87.67;99766.13;4992673;28;20133;-67
2021/12/23 11:05:56;;;;;;;18.55;5.32;;;;;;;-4.24;87.19;99753.50;4991803;28;20538;-69
2021/12/23 11:08:49;;;;;;;7.60;6.03;;;;;;;-4.21;87.63;99748.09;4991423;28;20035;-72
2021/12/23 11:38:35;;;;;;;8.50;5.10;;;;;;;-4.12;88.75;99673.91;4994003;28;20076;-77
2021/12/23 11:41:16;;;;;;;7.43;4.35;;;;;;;-4.07;88.89;99677.88;5001390;28;20130;-75
2021/12/23 11:46:11;;;;;;;15.13;5.47;;;;;;;-4.07;89.11;99669.22;4993647;28;20074;-75
2021/12/23 11:48:42;;;;;;;7.13;4.95;;;;;;;-4.01;88.58;99670.63;4992995;28;20050;-73
2021/12/23 11:51:14;;;;;;;7.55;4.43;;;;;;;-3.95;88.36;99670.25;4993046;28;20133;-73
2021/12/23 11:53:40;;;;;;;6.97;5.47;;;;;;;-3.94;88.02;99656.31;4993695;28;20054;-74
2021/12/23 11:56:10;;;;;;;5.13;4.40;;;;;;;-3.91;87.42;99646.53;4997161;28;20072;-72
2021/12/23 11:58:42;;;;;;;6.65;4.60;;;;;;;-4.14;87.27;99605.56;5002028;28;20096;-73
2021/12/23 12:01:14;;;;;;;7.07;4.95;;;;;;;-4.43;86.37;99561.44;5001496;28;20058;-72
2021/12/23 12:03:51;;;;;;;6.25;5.20;;;;;;;-3.95;86.59;99644.22;4998738;28;20038;-75
2021/12/23 12:06:19;;;;;;;7.32;4.70;;;;;;;-4.21;86.28;99576.53;4995923;28;20120;-75
2021/12/23 12:08:46;;;;;;;8.50;5.20;;;;;;;-3.87;86.26;99624.59;4997694;28;20050;-72
2021/12/23 12:11:21;;;;;;;9.23;4.53;;;;;;;-3.81;85.67;99651.97;5012313;28;20536;-73
2021/12/23 12:13:48;;;;;;;9.90;5.25;;;;;;;-3.79;86.11;99624.09;4979297;28;20038;-72
2021/12/23 12:16:30;;;;;;;9.07;5.28;;;;;;;-3.78;86.87;99637.00;4996854;28;20196;-72
2021/12/23 12:18:56;;;;;;;15.10;5.47;;;;;;;-3.81;86.48;99615.56;4996244;28;20042;-73
2021/12/23 12:21:31;;;;;;;5.93;4.93;;;;;;;-3.82;86.94;99619.09;4996417;28;20176;-73
2021/12/23 12:24:26;;;;;;;5.28;4.63;;;;;;;-3.81;88.62;99611.19;4996225;28;20045;-76
2021/12/23 12:26:55;;;;;;;6.05;4.93;;;;;;;-4.36;87.40;99531.53;4983659;28;20046;-71
2021/12/23 12:29:32;;;;;;;5.05;4.55;;;;;;;-3.83;87.14;99607.00;4996059;28;20034;-73
2021/12/23 12:32:01;;;;;;;13.55;5.55;;;;;;;-3.78;88.29;99612.75;4995696;28;20089;-72
2021/12/23 12:34:35;;;;;;;6.57;5.55;;;;;;;-3.85;88.25;99588.06;4995851;28;20510;-73
2021/12/23 12:37:03;;;;;;;5.68;4.55;;;;;;;-3.75;88.30;99617.78;4996558;28;20569;-73
2021/12/23 12:39:40;;;;;;;6.97;3.90;;;;;;;-3.78;88.89;99584.13;4997469;28;20397;-72
2021/12/23 12:42:10;;;;;;;7.28;5.07;;;;;;;-3.80;89.09;99565.19;4997053;28;20042;-74
2021/12/23 12:44:46;;;;;;;5.80;4.63;;;;;;;-3.80;88.59;99578.19;4998133;28;20039;-76
2021/12/23 12:47:23;;;;;;;6.38;5.60;;;;;;;-3.71;88.92;99577.63;4998582;28;20038;-70
2021/12/23 12:49:52;;;;;;;8.07;5.65;;;;;;;-3.93;88.42;99548.72;4998199;28;20074;-73
2021/12/23 12:52:18;;;;;;;8.52;5.13;;;;;;;-3.67;88.67;99571.25;4997731;28;20090;-75